ENRSENBO

Guest
Details From ENRS - Rost
To ENBO - BODO
Flight Number -
Tags generated
Created
Modified
Stats Distance 55 nm / 101 km
Max Altitude 0 ft / 0 m
Waypoints 3
Social Downloads 0
Likes 0
Share VATSIM

Download

Looking for another format? Having issues loading an existing format? Contact us
Advertisement - Login to hide

Notes

Basic altitude profile: - Ascent Rate: 2500ft/min - Ascent Speed: 250kts - Cruise Altitude: 35000ft - Cruise Speed: 420kts - Descent Rate: 1500ft/min - Descent Speed: 250kts Options: - Use NATs: yes - Use PACOTS: yes - Use low airways: yes - Use high airways: yes

Route

ENRS BOO ENBO

ID Type Via Altitude Latitude Longitude Leg Dist Tot Dist Heading (true) Name
O ENRS APT - 0 ft / 0 m 67.52723˚ 12.10255˚ - 0 nm - Rost
BOO VOR - 0 ft / 0 m 67.26625˚ 14.36177˚ 54 nm 54 nm 106° / 108° -
O ENBO APT - 0 ft / 0 m 67.26849˚ 14.35677˚ 0 nm 54 nm 319° / 319° BODO

Altitude Profile

Advertisement - Login to hide

ENRS

Details ICAO ENRS (RET)
Name Rost
Region Norway
Timezone Europe/Oslo (UTC+1.0)
Stats Elevation 7 ft / 2 m (AMSL)
Location 67.527229° 12.102547°
Runways 1
Magnetic Variation 4.494° E

METAR

ENRS 110550Z 17012KT CAVOK 04/M03 Q0991

Decode

TAF

Not found

Departure Runways

ID Width Length Bearing (true) Bearing (mag) Surface Threshold Offset Overrun Length
03 98 ft / 30 m 2,889 ft / 880 m 29.70° 25.21° Asphalt 0 ft / 0 m 0 ft / 0 m
21 98 ft / 30 m 2,889 ft / 880 m 209.70° 205.21° Asphalt 0 ft / 0 m 0 ft / 0 m

ENBO

Details ICAO ENBO (BOO)
Name BODO
Region Norway
Timezone Europe/Oslo (UTC+1.0)
Stats Elevation 42 ft / 13 m (AMSL)
Location 67.268487° 14.356773°
Runways 1
Magnetic Variation 5.702° E

METAR

ENBO 110550Z 10015KT 9999 FEW050 SCT100 03/M04 Q0992 NOSIG

Decode

TAF

TAF ENBO 1106/1206 10015KT 9999 FEW040 SCT100

Decode

Destination Runways

ID Width Length Bearing (true) Bearing (mag) Surface Threshold Offset Overrun Length
07 148 ft / 45 m 11,096 ft / 3,382 m 77.83° 72.13° Concrete 1,969 ft / 600 m 984 ft / 300 m
25 148 ft / 45 m 11,096 ft / 3,382 m 257.90° 252.20° Concrete 0 ft / 0 m 486 ft / 148 m

Approach Navaids

Runway Type Ident Frequency Range Bearing (true) Bearing (mag) Slope Elevation
07 Localiser BO 110.30 MHz 18 nm / 33 km 77.87° 72.17° - 42 ft / 13 m (AMSL)
07 Glidescope BO 110.30 MHz 10 nm / 19 km 77.87° 72.17° 3.00° 42 ft / 13 m (AMSL)
07 DME BO 110.30 MHz 18 nm / 33 km - - - 45 ft / 14 m (AMSL)
25 Localiser BD 109.10 MHz 18 nm / 33 km 268.29° 262.59° - 42 ft / 13 m (AMSL)
25 Glidescope BD 109.10 MHz 10 nm / 19 km 257.87° 252.17° 3.50° 42 ft / 13 m (AMSL)

Popular Alternatives